sensor_id;sensor_type;location;lat;lon;timestamp;temperature;humidity
3281;DHT22;1652;51.318;6.202;2022-09-09T00:00:15;14.60;99.90
3281;DHT22;1652;51.318;6.202;2022-09-09T00:03:14;14.60;99.90
3281;DHT22;1652;51.318;6.202;2022-09-09T00:06:05;14.60;99.90
3281;DHT22;1652;51.318;6.202;2022-09-09T00:08:57;14.60;99.90
3281;DHT22;1652;51.318;6.202;2022-09-09T00:11:54;14.60;99.90
3281;DHT22;1652;51.318;6.202;2022-09-09T00:14:26;14.70;99.90
3281;DHT22;1652;51.318;6.202;2022-09-09T00:17:02;14.60;99.90
3281;DHT22;1652;51.318;6.202;2022-09-09T00:22:23;14.50;99.90
3281;DHT22;1652;51.318;6.202;2022-09-09T00:24:54;14.40;99.90
3281;DHT22;1652;51.318;6.202;2022-09-09T00:27:43;14.40;99.90
3281;DHT22;1652;51.318;6.202;2022-09-09T00:32:43;14.30;99.90
3281;DHT22;1652;51.318;6.202;2022-09-09T00:35:18;14.30;99.90
3281;DHT22;1652;51.318;6.202;2022-09-09T00:37:51;14.30;99.90
3281;DHT22;1652;51.318;6.202;2022-09-09T00:40:32;14.30;99.90
3281;DHT22;1652;51.318;6.202;2022-09-09T00:48:50;14.30;99.90
3281;DHT22;1652;51.318;6.202;2022-09-09T00:51:34;14.30;99.90
3281;DHT22;1652;51.318;6.202;2022-09-09T00:57:28;14.20;99.90
3281;DHT22;1652;51.318;6.202;2022-09-09T01:11:21;14.00;99.90
3281;DHT22;1652;51.318;6.202;2022-09-09T01:13:55;14.00;99.90
3281;DHT22;1652;51.318;6.202;2022-09-09T01:16:29;14.10;99.90
3281;DHT22;1652;51.318;6.202;2022-09-09T01:18:57;14.10;99.90
3281;DHT22;1652;51.318;6.202;2022-09-09T01:21:50;14.00;99.90
3281;DHT22;1652;51.318;6.202;2022-09-09T01:24:25;14.00;99.90
3281;DHT22;1652;51.318;6.202;2022-09-09T01:27:13;14.00;99.90
3281;DHT22;1652;51.318;6.202;2022-09-09T01:29:41;13.90;99.90
3281;DHT22;1652;51.318;6.202;2022-09-09T01:35:15;13.90;99.90
3281;DHT22;1652;51.318;6.202;2022-09-09T01:37:48;13.90;99.90
3281;DHT22;1652;51.318;6.202;2022-09-09T01:40:15;13.90;99.90
3281;DHT22;1652;51.318;6.202;2022-09-09T01:42:42;13.90;99.90
3281;DHT22;1652;51.318;6.202;2022-09-09T01:45:09;14.00;99.90
3281;DHT22;1652;51.318;6.202;2022-09-09T01:47:36;14.00;99.90
3281;DHT22;1652;51.318;6.202;2022-09-09T01:50:13;13.90;99.90
3281;DHT22;1652;51.318;6.202;2022-09-09T01:52:42;13.90;99.90
3281;DHT22;1652;51.318;6.202;2022-09-09T01:55:11;13.90;99.90
3281;DHT22;1652;51.318;6.202;2022-09-09T01:57:56;13.90;99.90
3281;DHT22;1652;51.318;6.202;2022-09-09T02:00:25;13.90;99.90
3281;DHT22;1652;51.318;6.202;2022-09-09T02:03:26;13.80;99.90
3281;DHT22;1652;51.318;6.202;2022-09-09T02:08:55;14.00;99.90
3281;DHT22;1652;51.318;6.202;2022-09-09T02:11:25;14.00;99.90
3281;DHT22;1652;51.318;6.202;2022-09-09T02:14:23;14.00;99.90
3281;DHT22;1652;51.318;6.202;2022-09-09T02:16:56;14.00;99.90
3281;DHT22;1652;51.318;6.202;2022-09-09T02:19:39;14.00;99.90
3281;DHT22;1652;51.318;6.202;2022-09-09T02:22:33;14.10;99.90
3281;DHT22;1652;51.318;6.202;2022-09-09T02:25:02;14.10;99.90
3281;DHT22;1652;51.318;6.202;2022-09-09T02:27:33;14.10;99.90
3281;DHT22;1652;51.318;6.202;2022-09-09T02:30:01;14.10;99.90
3281;DHT22;1652;51.318;6.202;2022-09-09T02:32:38;14.10;99.90
3281;DHT22;1652;51.318;6.202;2022-09-09T02:35:13;14.10;99.90
3281;DHT22;1652;51.318;6.202;2022-09-09T02:37:43;14.10;99.90
3281;DHT22;1652;51.318;6.202;2022-09-09T02:40:14;14.20;99.90
3281;DHT22;1652;51.318;6.202;2022-09-09T02:42:49;14.20;99.90
3281;DHT22;1652;51.318;6.202;2022-09-09T02:45:20;14.10;99.90
3281;DHT22;1652;51.318;6.202;2022-09-09T02:48:20;14.10;99.90
3281;DHT22;1652;51.318;6.202;2022-09-09T02:50:54;14.10;99.90
3281;DHT22;1652;51.318;6.202;2022-09-09T02:53:36;14.10;99.90
3281;DHT22;1652;51.318;6.202;2022-09-09T02:56:14;14.10;99.90
3281;DHT22;1652;51.318;6.202;2022-09-09T02:58:45;14.10;99.90
3281;DHT22;1652;51.318;6.202;2022-09-09T03:01:12;14.10;99.90
3281;DHT22;1652;51.318;6.202;2022-09-09T03:03:41;14.20;99.90
3281;DHT22;1652;51.318;6.202;2022-09-09T03:06:12;14.20;99.90
3281;DHT22;1652;51.318;6.202;2022-09-09T03:08:41;14.10;99.90
3281;DHT22;1652;51.318;6.202;2022-09-09T03:11:16;14.10;99.90
3281;DHT22;1652;51.318;6.202;2022-09-09T03:13:43;14.10;99.90
3281;DHT22;1652;51.318;6.202;2022-09-09T03:16:10;14.10;99.90
3281;DHT22;1652;51.318;6.202;2022-09-09T03:18:42;14.10;99.90
3281;DHT22;1652;51.318;6.202;2022-09-09T03:21:09;14.10;99.90
3281;DHT22;1652;51.318;6.202;2022-09-09T03:23:37;14.20;99.90
3281;DHT22;1652;51.318;6.202;2022-09-09T03:26:04;14.20;99.90
3281;DHT22;1652;51.318;6.202;2022-09-09T03:28:39;14.20;99.90
3281;DHT22;1652;51.318;6.202;2022-09-09T03:31:06;14.30;99.90
3281;DHT22;1652;51.318;6.202;2022-09-09T03:33:39;14.20;99.90
3281;DHT22;1652;51.318;6.202;2022-09-09T03:36:10;14.20;99.90
3281;DHT22;1652;51.318;6.202;2022-09-09T03:38:37;14.30;99.90
3281;DHT22;1652;51.318;6.202;2022-09-09T03:41:05;14.40;99.90
3281;DHT22;1652;51.318;6.202;2022-09-09T03:43:34;14.40;99.90
3281;DHT22;1652;51.318;6.202;2022-09-09T03:46:01;14.40;99.90
3281;DHT22;1652;51.318;6.202;2022-09-09T03:48:29;14.40;99.90
3281;DHT22;1652;51.318;6.202;2022-09-09T03:50:57;14.40;99.90
3281;DHT22;1652;51.318;6.202;2022-09-09T03:53:28;14.40;99.90
3281;DHT22;1652;51.318;6.202;2022-09-09T03:55:57;14.50;99.90
3281;DHT22;1652;51.318;6.202;2022-09-09T03:58:27;14.50;99.90
3281;DHT22;1652;51.318;6.202;2022-09-09T04:01:06;14.50;99.90
3281;DHT22;1652;51.318;6.202;2022-09-09T04:03:33;14.50;99.90
3281;DHT22;1652;51.318;6.202;2022-09-09T04:06:04;14.50;99.90
3281;DHT22;1652;51.318;6.202;2022-09-09T04:08:31;14.50;99.90
3281;DHT22;1652;51.318;6.202;2022-09-09T04:11:00;14.60;99.90
3281;DHT22;1652;51.318;6.202;2022-09-09T04:13:29;14.60;99.90
3281;DHT22;1652;51.318;6.202;2022-09-09T04:15:58;14.70;99.90
3281;DHT22;1652;51.318;6.202;2022-09-09T04:18:26;14.70;99.90
3281;DHT22;1652;51.318;6.202;2022-09-09T04:20:55;14.70;99.90
3281;DHT22;1652;51.318;6.202;2022-09-09T04:23:27;14.70;99.90
3281;DHT22;1652;51.318;6.202;2022-09-09T04:25:58;14.80;99.90
3281;DHT22;1652;51.318;6.202;2022-09-09T04:28:28;14.70;99.90
3281;DHT22;1652;51.318;6.202;2022-09-09T04:30:57;14.80;99.90
3281;DHT22;1652;51.318;6.202;2022-09-09T04:33:24;14.70;99.90
3281;DHT22;1652;51.318;6.202;2022-09-09T04:35:54;14.70;99.90
3281;DHT22;1652;51.318;6.202;2022-09-09T04:38:24;14.80;99.90
3281;DHT22;1652;51.318;6.202;2022-09-09T04:40:51;14.70;99.90
3281;DHT22;1652;51.318;6.202;2022-09-09T04:43:18;14.80;99.90
3281;DHT22;1652;51.318;6.202;2022-09-09T04:45:47;14.80;99.90
3281;DHT22;1652;51.318;6.202;2022-09-09T04:48:15;14.80;99.90
3281;DHT22;1652;51.318;6.202;2022-09-09T04:50:42;14.90;99.90
3281;DHT22;1652;51.318;6.202;2022-09-09T04:53:11;15.00;99.90
3281;DHT22;1652;51.318;6.202;2022-09-09T04:55:38;15.00;99.90
3281;DHT22;1652;51.318;6.202;2022-09-09T04:58:07;15.00;99.90
3281;DHT22;1652;51.318;6.202;2022-09-09T05:00:35;15.00;99.90
3281;DHT22;1652;51.318;6.202;2022-09-09T05:03:05;15.10;99.90
3281;DHT22;1652;51.318;6.202;2022-09-09T05:05:33;15.10;99.90
3281;DHT22;1652;51.318;6.202;2022-09-09T05:08:05;15.00;99.90
3281;DHT22;1652;51.318;6.202;2022-09-09T05:10:33;15.10;99.90
3281;DHT22;1652;51.318;6.202;2022-09-09T05:13:01;15.10;99.90
3281;DHT22;1652;51.318;6.202;2022-09-09T05:15:29;15.10;99.90
3281;DHT22;1652;51.318;6.202;2022-09-09T05:18:00;15.10;99.90
3281;DHT22;1652;51.318;6.202;2022-09-09T05:20:30;15.10;99.90
3281;DHT22;1652;51.318;6.202;2022-09-09T05:22:57;15.20;99.90
3281;DHT22;1652;51.318;6.202;2022-09-09T05:25:34;15.20;99.90
3281;DHT22;1652;51.318;6.202;2022-09-09T05:28:01;15.30;99.90
3281;DHT22;1652;51.318;6.202;2022-09-09T05:30:27;15.30;99.90
3281;DHT22;1652;51.318;6.202;2022-09-09T05:32:58;15.30;99.90
3281;DHT22;1652;51.318;6.202;2022-09-09T05:35:25;15.40;99.90
3281;DHT22;1652;51.318;6.202;2022-09-09T05:37:52;15.40;99.90
3281;DHT22;1652;51.318;6.202;2022-09-09T05:40:34;15.50;99.90
3281;DHT22;1652;51.318;6.202;2022-09-09T05:43:01;15.50;99.90
3281;DHT22;1652;51.318;6.202;2022-09-09T05:45:28;15.50;99.90
3281;DHT22;1652;51.318;6.202;2022-09-09T05:47:55;15.60;99.90
3281;DHT22;1652;51.318;6.202;2022-09-09T05:50:22;15.70;99.90
3281;DHT22;1652;51.318;6.202;2022-09-09T05:52:54;16.00;99.90
3281;DHT22;1652;51.318;6.202;2022-09-09T05:55:21;16.50;99.90
3281;DHT22;1652;51.318;6.202;2022-09-09T05:57:49;17.00;99.90
3281;DHT22;1652;51.318;6.202;2022-09-09T06:00:16;17.40;99.90
3281;DHT22;1652;51.318;6.202;2022-09-09T06:02:50;17.40;99.90
3281;DHT22;1652;51.318;6.202;2022-09-09T06:05:20;17.50;99.90
3281;DHT22;1652;51.318;6.202;2022-09-09T06:07:52;17.50;99.90
3281;DHT22;1652;51.318;6.202;2022-09-09T06:10:19;17.50;99.90
3281;DHT22;1652;51.318;6.202;2022-09-09T06:12:46;18.00;99.90
3281;DHT22;1652;51.318;6.202;2022-09-09T06:15:13;18.50;99.90
3281;DHT22;1652;51.318;6.202;2022-09-09T06:17:40;18.90;99.90
3281;DHT22;1652;51.318;6.202;2022-09-09T06:20:08;19.10;99.90
3281;DHT22;1652;51.318;6.202;2022-09-09T06:22:35;19.40;99.90
3281;DHT22;1652;51.318;6.202;2022-09-09T06:25:02;19.80;99.90
3281;DHT22;1652;51.318;6.202;2022-09-09T06:27:29;19.90;97.90
3281;DHT22;1652;51.318;6.202;2022-09-09T06:29:57;19.90;97.40
3281;DHT22;1652;51.318;6.202;2022-09-09T06:32:23;19.60;97.40
3281;DHT22;1652;51.318;6.202;2022-09-09T06:34:50;19.40;99.90
3281;DHT22;1652;51.318;6.202;2022-09-09T06:37:17;19.50;99.90
3281;DHT22;1652;51.318;6.202;2022-09-09T06:39:48;20.20;99.90
3281;DHT22;1652;51.318;6.202;2022-09-09T06:42:16;20.70;93.00
3281;DHT22;1652;51.318;6.202;2022-09-09T06:44:50;20.70;86.30
3281;DHT22;1652;51.318;6.202;2022-09-09T06:47:51;20.40;86.70
3281;DHT22;1652;51.318;6.202;2022-09-09T06:50:21;19.70;95.80
3281;DHT22;1652;51.318;6.202;2022-09-09T06:52:49;20.10;99.90
3281;DHT22;1652;51.318;6.202;2022-09-09T06:55:17;20.20;93.20
3281;DHT22;1652;51.318;6.202;2022-09-09T06:57:44;20.00;92.10
3281;DHT22;1652;51.318;6.202;2022-09-09T07:00:16;19.50;99.80
3281;DHT22;1652;51.318;6.202;2022-09-09T07:02:43;18.90;99.90
3281;DHT22;1652;51.318;6.202;2022-09-09T07:05:12;18.50;99.90
3281;DHT22;1652;51.318;6.202;2022-09-09T07:07:40;18.40;99.90
3281;DHT22;1652;51.318;6.202;2022-09-09T07:10:09;18.50;99.90
3281;DHT22;1652;51.318;6.202;2022-09-09T07:12:37;18.60;99.90
3281;DHT22;1652;51.318;6.202;2022-09-09T07:15:05;19.00;99.90
3281;DHT22;1652;51.318;6.202;2022-09-09T07:17:32;19.10;99.90
3281;DHT22;1652;51.318;6.202;2022-09-09T07:19:59;19.00;99.90
3281;DHT22;1652;51.318;6.202;2022-09-09T07:22:27;18.90;99.90
3281;DHT22;1652;51.318;6.202;2022-09-09T07:24:55;18.70;99.90
3281;DHT22;1652;51.318;6.202;2022-09-09T07:27:23;18.50;99.90
3281;DHT22;1652;51.318;6.202;2022-09-09T07:29:50;18.60;99.90
3281;DHT22;1652;51.318;6.202;2022-09-09T07:32:20;19.50;99.90
3281;DHT22;1652;51.318;6.202;2022-09-09T07:34:47;19.70;96.60
3281;DHT22;1652;51.318;6.202;2022-09-09T07:37:14;19.50;97.70
3281;DHT22;1652;51.318;6.202;2022-09-09T07:39:43;19.50;96.60
3281;DHT22;1652;51.318;6.202;2022-09-09T07:42:11;19.30;96.50
3281;DHT22;1652;51.318;6.202;2022-09-09T07:44:39;19.70;98.90
3281;DHT22;1652;51.318;6.202;2022-09-09T07:47:12;20.00;93.80
3281;DHT22;1652;51.318;6.202;2022-09-09T07:49:43;20.50;92.90
3281;DHT22;1652;51.318;6.202;2022-09-09T07:52:15;21.00;82.80
3281;DHT22;1652;51.318;6.202;2022-09-09T07:54:49;21.30;1.00
3281;DHT22;1652;51.318;6.202;2022-09-09T07:57:17;21.80;1.00
3281;DHT22;1652;51.318;6.202;2022-09-09T07:59:48;22.50;1.00
3281;DHT22;1652;51.318;6.202;2022-09-09T08:02:15;22.70;1.00
3281;DHT22;1652;51.318;6.202;2022-09-09T08:04:43;22.70;99.90
3281;DHT22;1652;51.318;6.202;2022-09-09T08:07:10;22.30;1.00
3281;DHT22;1652;51.318;6.202;2022-09-09T08:09:44;21.90;1.00
3281;DHT22;1652;51.318;6.202;2022-09-09T08:12:24;22.10;1.00
3281;DHT22;1652;51.318;6.202;2022-09-09T08:14:52;22.70;1.00
3281;DHT22;1652;51.318;6.202;2022-09-09T08:17:22;22.90;1.00
3281;DHT22;1652;51.318;6.202;2022-09-09T08:19:50;22.80;99.90
3281;DHT22;1652;51.318;6.202;2022-09-09T08:22:21;22.50;99.90
3281;DHT22;1652;51.318;6.202;2022-09-09T08:24:49;22.00;1.00
3281;DHT22;1652;51.318;6.202;2022-09-09T08:27:16;21.50;1.00
3281;DHT22;1652;51.318;6.202;2022-09-09T08:29:43;21.00;1.00
3281;DHT22;1652;51.318;6.202;2022-09-09T08:32:11;20.70;1.00
3281;DHT22;1652;51.318;6.202;2022-09-09T08:34:39;20.30;1.00
3281;DHT22;1652;51.318;6.202;2022-09-09T08:37:16;20.00;1.00
3281;DHT22;1652;51.318;6.202;2022-09-09T08:39:43;19.70;1.00
3281;DHT22;1652;51.318;6.202;2022-09-09T08:42:18;19.40;1.00
3281;DHT22;1652;51.318;6.202;2022-09-09T08:45:37;19.20;1.20
3281;DHT22;1652;51.318;6.202;2022-09-09T08:50:42;19.40;1.00
3281;DHT22;1652;51.318;6.202;2022-09-09T08:53:28;19.60;1.00
3281;DHT22;1652;51.318;6.202;2022-09-09T08:56:09;19.60;1.00
3281;DHT22;1652;51.318;6.202;2022-09-09T08:58:49;19.60;1.00
3281;DHT22;1652;51.318;6.202;2022-09-09T09:04:51;20.20;1.00
3281;DHT22;1652;51.318;6.202;2022-09-09T09:10:46;21.00;1.00
3281;DHT22;1652;51.318;6.202;2022-09-09T09:13:22;21.10;99.90
3281;DHT22;1652;51.318;6.202;2022-09-09T09:16:00;21.00;1.00
3281;DHT22;1652;51.318;6.202;2022-09-09T09:18:28;21.00;1.00
3281;DHT22;1652;51.318;6.202;2022-09-09T09:23:42;20.40;1.00
3281;DHT22;1652;51.318;6.202;2022-09-09T09:26:12;20.20;1.00
3281;DHT22;1652;51.318;6.202;2022-09-09T09:28:40;20.10;1.00
3281;DHT22;1652;51.318;6.202;2022-09-09T09:31:12;20.10;1.00
3281;DHT22;1652;51.318;6.202;2022-09-09T09:33:48;20.30;1.00
3281;DHT22;1652;51.318;6.202;2022-09-09T09:36:17;20.30;1.00
3281;DHT22;1652;51.318;6.202;2022-09-09T09:39:00;20.10;1.00
3281;DHT22;1652;51.318;6.202;2022-09-09T09:41:48;20.00;1.00
3281;DHT22;1652;51.318;6.202;2022-09-09T09:44:27;20.00;1.00
3281;DHT22;1652;51.318;6.202;2022-09-09T09:47:12;19.70;1.00
3281;DHT22;1652;51.318;6.202;2022-09-09T09:49:56;19.50;1.00
3281;DHT22;1652;51.318;6.202;2022-09-09T09:52:29;19.30;1.00
3281;DHT22;1652;51.318;6.202;2022-09-09T09:54:59;19.20;1.00
3281;DHT22;1652;51.318;6.202;2022-09-09T09:57:33;19.00;1.00
3281;DHT22;1652;51.318;6.202;2022-09-09T10:00:22;18.90;1.00
3281;DHT22;1652;51.318;6.202;2022-09-09T10:02:59;18.90;1.00
3281;DHT22;1652;51.318;6.202;2022-09-09T10:05:31;18.80;20.80
3281;DHT22;1652;51.318;6.202;2022-09-09T10:08:12;18.70;14.70
3281;DHT22;1652;51.318;6.202;2022-09-09T10:13:42;18.60;18.70
3281;DHT22;1652;51.318;6.202;2022-09-09T10:24:58;19.90;1.00
3281;DHT22;1652;51.318;6.202;2022-09-09T10:30:40;19.80;1.00
3281;DHT22;1652;51.318;6.202;2022-09-09T10:33:15;19.70;1.00
3281;DHT22;1652;51.318;6.202;2022-09-09T10:38:13;19.50;1.00
3281;DHT22;1652;51.318;6.202;2022-09-09T10:51:45;19.50;1.00
3281;DHT22;1652;51.318;6.202;2022-09-09T10:57:11;19.20;29.00
3281;DHT22;1652;51.318;6.202;2022-09-09T10:59:47;19.20;29.20
3281;DHT22;1652;51.318;6.202;2022-09-09T11:02:29;19.40;20.30
3281;DHT22;1652;51.318;6.202;2022-09-09T11:05:49;19.70;1.00
3281;DHT22;1652;51.318;6.202;2022-09-09T11:07:56;20.00;1.00
3281;DHT22;1652;51.318;6.202;2022-09-09T11:13:04;20.40;1.00
3281;DHT22;1652;51.318;6.202;2022-09-09T11:15:44;20.50;1.00
3281;DHT22;1652;51.318;6.202;2022-09-09T11:18:19;20.60;1.00
3281;DHT22;1652;51.318;6.202;2022-09-09T11:20:51;20.70;1.00
3281;DHT22;1652;51.318;6.202;2022-09-09T11:23:24;20.60;1.00
3281;DHT22;1652;51.318;6.202;2022-09-09T11:25:59;20.30;1.00
3281;DHT22;1652;51.318;6.202;2022-09-09T11:29:19;19.90;1.00
3281;DHT22;1652;51.318;6.202;2022-09-09T11:32:27;19.70;1.00
3281;DHT22;1652;51.318;6.202;2022-09-09T11:38:04;19.30;1.00
3281;DHT22;1652;51.318;6.202;2022-09-09T11:40:36;19.10;24.90
3281;DHT22;1652;51.318;6.202;2022-09-09T11:43:12;18.90;61.30
3281;DHT22;1652;51.318;6.202;2022-09-09T11:45:42;18.70;90.60
3281;DHT22;1652;51.318;6.202;2022-09-09T11:51:06;18.60;99.90
3281;DHT22;1652;51.318;6.202;2022-09-09T11:53:55;18.40;99.90
3281;DHT22;1652;51.318;6.202;2022-09-09T11:56:43;18.00;99.90
3281;DHT22;1652;51.318;6.202;2022-09-09T11:59:28;17.80;99.90
3281;DHT22;1652;51.318;6.202;2022-09-09T12:02:22;17.50;99.90
3281;DHT22;1652;51.318;6.202;2022-09-09T12:05:00;17.30;99.90
3281;DHT22;1652;51.318;6.202;2022-09-09T12:07:41;17.20;99.90
3281;DHT22;1652;51.318;6.202;2022-09-09T12:10:31;17.30;99.90
3281;DHT22;1652;51.318;6.202;2022-09-09T12:13:21;17.40;99.90
3281;DHT22;1652;51.318;6.202;2022-09-09T12:15:50;17.70;99.90
3281;DHT22;1652;51.318;6.202;2022-09-09T12:18:39;18.20;99.90
3281;DHT22;1652;51.318;6.202;2022-09-09T12:21:16;18.50;99.90
3281;DHT22;1652;51.318;6.202;2022-09-09T12:23:52;18.70;99.90
3281;DHT22;1652;51.318;6.202;2022-09-09T12:37:02;18.90;99.90
3281;DHT22;1652;51.318;6.202;2022-09-09T12:39:44;18.90;99.90
3281;DHT22;1652;51.318;6.202;2022-09-09T12:42:17;19.10;99.90
3281;DHT22;1652;51.318;6.202;2022-09-09T12:44:56;19.10;99.90
3281;DHT22;1652;51.318;6.202;2022-09-09T12:47:49;19.20;99.90
3281;DHT22;1652;51.318;6.202;2022-09-09T12:50:22;19.30;97.10
3281;DHT22;1652;51.318;6.202;2022-09-09T12:52:55;19.30;87.40
3281;DHT22;1652;51.318;6.202;2022-09-09T12:55:29;19.40;80.10
3281;DHT22;1652;51.318;6.202;2022-09-09T12:57:57;19.50;72.00
3281;DHT22;1652;51.318;6.202;2022-09-09T13:00:26;19.40;31.80
3281;DHT22;1652;51.318;6.202;2022-09-09T13:02:56;19.30;25.50
3281;DHT22;1652;51.318;6.202;2022-09-09T13:05:25;19.20;35.40
3281;DHT22;1652;51.318;6.202;2022-09-09T13:08:04;19.30;36.50
3281;DHT22;1652;51.318;6.202;2022-09-09T13:10:35;19.50;54.30
3281;DHT22;1652;51.318;6.202;2022-09-09T13:13:28;19.80;33.10
3281;DHT22;1652;51.318;6.202;2022-09-09T13:15:58;20.00;1.00
3281;DHT22;1652;51.318;6.202;2022-09-09T13:18:31;20.00;1.00
3281;DHT22;1652;51.318;6.202;2022-09-09T13:20:58;20.00;1.00
3281;DHT22;1652;51.318;6.202;2022-09-09T13:23:28;20.10;1.00
3281;DHT22;1652;51.318;6.202;2022-09-09T13:26:40;20.20;1.00
3281;DHT22;1652;51.318;6.202;2022-09-09T13:28:51;20.20;1.00
3281;DHT22;1652;51.318;6.202;2022-09-09T13:31:30;20.30;1.00
3281;DHT22;1652;51.318;6.202;2022-09-09T13:33:59;20.10;1.00
3281;DHT22;1652;51.318;6.202;2022-09-09T13:36:34;20.00;1.00
3281;DHT22;1652;51.318;6.202;2022-09-09T13:39:03;19.70;1.00
3281;DHT22;1652;51.318;6.202;2022-09-09T13:41:34;19.50;1.00
3281;DHT22;1652;51.318;6.202;2022-09-09T13:44:02;19.30;1.00
3281;DHT22;1652;51.318;6.202;2022-09-09T13:46:38;19.20;43.80
3281;DHT22;1652;51.318;6.202;2022-09-09T13:51:43;18.40;99.90
3281;DHT22;1652;51.318;6.202;2022-09-09T13:54:15;18.00;99.90
3281;DHT22;1652;51.318;6.202;2022-09-09T13:56:43;17.60;99.90
3281;DHT22;1652;51.318;6.202;2022-09-09T13:59:19;17.40;99.90
3281;DHT22;1652;51.318;6.202;2022-09-09T14:02:08;17.10;99.90
3281;DHT22;1652;51.318;6.202;2022-09-09T14:04:35;16.70;99.90
3281;DHT22;1652;51.318;6.202;2022-09-09T14:07:02;16.60;99.90
3281;DHT22;1652;51.318;6.202;2022-09-09T14:09:29;16.50;99.90
3281;DHT22;1652;51.318;6.202;2022-09-09T14:11:56;16.40;99.90
3281;DHT22;1652;51.318;6.202;2022-09-09T14:14:24;16.40;99.90
3281;DHT22;1652;51.318;6.202;2022-09-09T14:16:52;16.40;99.90
3281;DHT22;1652;51.318;6.202;2022-09-09T14:19:19;16.20;99.90
3281;DHT22;1652;51.318;6.202;2022-09-09T14:21:46;16.30;99.90
3281;DHT22;1652;51.318;6.202;2022-09-09T14:24:13;16.40;99.90
3281;DHT22;1652;51.318;6.202;2022-09-09T14:26:40;16.50;99.90
3281;DHT22;1652;51.318;6.202;2022-09-09T14:29:07;16.60;99.90
3281;DHT22;1652;51.318;6.202;2022-09-09T14:31:34;16.80;99.90
3281;DHT22;1652;51.318;6.202;2022-09-09T14:34:01;16.90;99.90
3281;DHT22;1652;51.318;6.202;2022-09-09T14:36:27;17.00;99.90
3281;DHT22;1652;51.318;6.202;2022-09-09T14:38:54;17.10;99.90
3281;DHT22;1652;51.318;6.202;2022-09-09T14:41:21;17.30;99.90
3281;DHT22;1652;51.318;6.202;2022-09-09T14:43:49;17.30;99.90
3281;DHT22;1652;51.318;6.202;2022-09-09T14:46:18;17.40;99.90
3281;DHT22;1652;51.318;6.202;2022-09-09T14:48:45;17.50;99.90
3281;DHT22;1652;51.318;6.202;2022-09-09T14:51:23;17.50;99.90
3281;DHT22;1652;51.318;6.202;2022-09-09T14:53:52;17.60;99.90
3281;DHT22;1652;51.318;6.202;2022-09-09T14:56:24;17.80;99.90
3281;DHT22;1652;51.318;6.202;2022-09-09T14:58:53;18.00;99.90
3281;DHT22;1652;51.318;6.202;2022-09-09T15:01:22;18.10;99.90
3281;DHT22;1652;51.318;6.202;2022-09-09T15:03:52;18.20;99.90
3281;DHT22;1652;51.318;6.202;2022-09-09T15:06:20;18.20;99.90
3281;DHT22;1652;51.318;6.202;2022-09-09T15:08:49;18.40;99.90
3281;DHT22;1652;51.318;6.202;2022-09-09T15:11:16;18.50;99.90
3281;DHT22;1652;51.318;6.202;2022-09-09T15:13:44;18.60;99.90
3281;DHT22;1652;51.318;6.202;2022-09-09T15:16:15;18.60;99.90
3281;DHT22;1652;51.318;6.202;2022-09-09T15:18:44;18.50;99.90
3281;DHT22;1652;51.318;6.202;2022-09-09T15:21:14;18.50;99.90
3281;DHT22;1652;51.318;6.202;2022-09-09T15:23:41;18.60;99.90
3281;DHT22;1652;51.318;6.202;2022-09-09T15:26:10;18.70;99.90
3281;DHT22;1652;51.318;6.202;2022-09-09T15:28:38;18.80;99.90
3281;DHT22;1652;51.318;6.202;2022-09-09T15:31:14;18.90;99.90
3281;DHT22;1652;51.318;6.202;2022-09-09T15:33:41;18.90;99.90
3281;DHT22;1652;51.318;6.202;2022-09-09T15:36:21;18.90;99.90
3281;DHT22;1652;51.318;6.202;2022-09-09T15:38:51;19.00;99.90
3281;DHT22;1652;51.318;6.202;2022-09-09T15:41:20;19.00;99.90
3281;DHT22;1652;51.318;6.202;2022-09-09T15:43:49;19.00;99.90
3281;DHT22;1652;51.318;6.202;2022-09-09T15:49:03;19.00;99.90
3281;DHT22;1652;51.318;6.202;2022-09-09T15:51:30;19.00;99.90
3281;DHT22;1652;51.318;6.202;2022-09-09T15:54:15;19.10;99.90
3281;DHT22;1652;51.318;6.202;2022-09-09T15:56:49;19.20;99.90
3281;DHT22;1652;51.318;6.202;2022-09-09T15:59:16;19.20;99.90
3281;DHT22;1652;51.318;6.202;2022-09-09T16:01:44;19.30;99.90
3281;DHT22;1652;51.318;6.202;2022-09-09T16:04:11;19.20;99.90
3281;DHT22;1652;51.318;6.202;2022-09-09T16:06:38;19.20;99.90
3281;DHT22;1652;51.318;6.202;2022-09-09T16:09:06;19.10;99.90
3281;DHT22;1652;51.318;6.202;2022-09-09T16:11:36;19.10;99.90
3281;DHT22;1652;51.318;6.202;2022-09-09T16:14:04;19.20;99.90
3281;DHT22;1652;51.318;6.202;2022-09-09T16:16:34;19.20;99.90
3281;DHT22;1652;51.318;6.202;2022-09-09T16:19:10;19.20;99.90
3281;DHT22;1652;51.318;6.202;2022-09-09T16:21:41;19.20;99.90
3281;DHT22;1652;51.318;6.202;2022-09-09T16:24:10;19.20;99.90
3281;DHT22;1652;51.318;6.202;2022-09-09T16:26:39;19.30;99.90
3281;DHT22;1652;51.318;6.202;2022-09-09T16:29:06;19.30;99.90
3281;DHT22;1652;51.318;6.202;2022-09-09T16:31:33;19.40;99.90
3281;DHT22;1652;51.318;6.202;2022-09-09T16:34:03;19.40;99.90
3281;DHT22;1652;51.318;6.202;2022-09-09T16:36:38;19.40;99.90
3281;DHT22;1652;51.318;6.202;2022-09-09T16:39:10;19.40;99.90
3281;DHT22;1652;51.318;6.202;2022-09-09T16:41:38;19.40;99.90
3281;DHT22;1652;51.318;6.202;2022-09-09T16:44:08;19.40;99.90
3281;DHT22;1652;51.318;6.202;2022-09-09T16:46:37;19.30;99.90
3281;DHT22;1652;51.318;6.202;2022-09-09T16:49:07;19.30;99.90
3281;DHT22;1652;51.318;6.202;2022-09-09T16:51:37;19.10;99.90
3281;DHT22;1652;51.318;6.202;2022-09-09T16:54:06;19.10;99.90
3281;DHT22;1652;51.318;6.202;2022-09-09T16:56:36;18.90;99.90
3281;DHT22;1652;51.318;6.202;2022-09-09T16:59:14;19.00;99.90
3281;DHT22;1652;51.318;6.202;2022-09-09T17:01:42;18.90;99.90
3281;DHT22;1652;51.318;6.202;2022-09-09T17:04:18;19.00;99.90
3281;DHT22;1652;51.318;6.202;2022-09-09T17:06:48;19.00;99.90
3281;DHT22;1652;51.318;6.202;2022-09-09T17:09:16;19.00;99.90
3281;DHT22;1652;51.318;6.202;2022-09-09T17:11:43;19.00;99.90
3281;DHT22;1652;51.318;6.202;2022-09-09T17:14:14;18.90;99.90
3281;DHT22;1652;51.318;6.202;2022-09-09T17:16:42;18.80;99.90
3281;DHT22;1652;51.318;6.202;2022-09-09T17:19:10;18.70;99.90
3281;DHT22;1652;51.318;6.202;2022-09-09T17:21:37;18.60;99.90
3281;DHT22;1652;51.318;6.202;2022-09-09T17:24:25;18.50;99.90
3281;DHT22;1652;51.318;6.202;2022-09-09T17:26:53;18.40;99.90
3281;DHT22;1652;51.318;6.202;2022-09-09T17:29:21;18.30;99.90
3281;DHT22;1652;51.318;6.202;2022-09-09T17:31:48;18.20;99.90
3281;DHT22;1652;51.318;6.202;2022-09-09T17:34:21;18.10;99.90
3281;DHT22;1652;51.318;6.202;2022-09-09T17:37:06;18.10;99.90
3281;DHT22;1652;51.318;6.202;2022-09-09T17:39:35;18.10;99.90
3281;DHT22;1652;51.318;6.202;2022-09-09T17:42:02;18.10;99.90
3281;DHT22;1652;51.318;6.202;2022-09-09T17:44:29;18.00;99.90
3281;DHT22;1652;51.318;6.202;2022-09-09T17:46:59;18.10;99.90
3281;DHT22;1652;51.318;6.202;2022-09-09T17:49:26;18.10;99.90
3281;DHT22;1652;51.318;6.202;2022-09-09T17:51:52;18.10;99.90
3281;DHT22;1652;51.318;6.202;2022-09-09T17:54:20;18.10;99.90
3281;DHT22;1652;51.318;6.202;2022-09-09T17:56:47;18.00;99.90
3281;DHT22;1652;51.318;6.202;2022-09-09T17:59:16;17.90;99.90
3281;DHT22;1652;51.318;6.202;2022-09-09T18:01:45;17.80;99.90
3281;DHT22;1652;51.318;6.202;2022-09-09T18:04:15;17.70;99.90
3281;DHT22;1652;51.318;6.202;2022-09-09T18:06:48;17.50;99.90
3281;DHT22;1652;51.318;6.202;2022-09-09T18:09:18;17.30;99.90
3281;DHT22;1652;51.318;6.202;2022-09-09T18:11:47;17.10;99.90
3281;DHT22;1652;51.318;6.202;2022-09-09T18:14:17;17.00;99.90
3281;DHT22;1652;51.318;6.202;2022-09-09T18:16:46;16.90;99.90